sensor_id;sensor_type;location;lat;lon;timestamp;pressure;altitude;pressure_sealevel;temperature
65569;BMP180;52211;50.154;8.682;2022-08-19T00:00:41;99666.00;;;27.60
65569;BMP180;52211;50.154;8.682;2022-08-19T00:03:15;99662.00;;;27.60
65569;BMP180;52211;50.154;8.682;2022-08-19T00:05:44;99662.00;;;27.60
65569;BMP180;52211;50.154;8.682;2022-08-19T00:08:11;99675.00;;;27.60
65569;BMP180;52211;50.154;8.682;2022-08-19T00:10:40;99672.00;;;27.60
65569;BMP180;52211;50.154;8.682;2022-08-19T00:13:09;99665.00;;;27.60
65569;BMP180;52211;50.154;8.682;2022-08-19T00:15:38;99664.00;;;27.60
65569;BMP180;52211;50.154;8.682;2022-08-19T00:18:06;99665.00;;;27.60
65569;BMP180;52211;50.154;8.682;2022-08-19T00:20:35;99661.00;;;27.60
65569;BMP180;52211;50.154;8.682;2022-08-19T00:23:02;99659.00;;;27.60
65569;BMP180;52211;50.154;8.682;2022-08-19T00:25:29;99652.00;;;27.60
65569;BMP180;52211;50.154;8.682;2022-08-19T00:27:59;99647.00;;;27.60
65569;BMP180;52211;50.154;8.682;2022-08-19T00:30:26;99639.00;;;27.60
65569;BMP180;52211;50.154;8.682;2022-08-19T00:32:56;99638.00;;;27.50
65569;BMP180;52211;50.154;8.682;2022-08-19T00:35:28;99632.00;;;27.50
65569;BMP180;52211;50.154;8.682;2022-08-19T00:37:55;99638.00;;;27.50
65569;BMP180;52211;50.154;8.682;2022-08-19T00:40:22;99633.00;;;27.50
65569;BMP180;52211;50.154;8.682;2022-08-19T00:42:52;99633.00;;;27.50
65569;BMP180;52211;50.154;8.682;2022-08-19T00:45:30;99627.00;;;27.50
65569;BMP180;52211;50.154;8.682;2022-08-19T00:48:03;99634.00;;;27.50
65569;BMP180;52211;50.154;8.682;2022-08-19T00:50:42;99639.00;;;27.50
65569;BMP180;52211;50.154;8.682;2022-08-19T00:53:27;99636.00;;;27.50
65569;BMP180;52211;50.154;8.682;2022-08-19T00:55:58;99633.00;;;27.50
65569;BMP180;52211;50.154;8.682;2022-08-19T00:58:30;99631.00;;;27.50
65569;BMP180;52211;50.154;8.682;2022-08-19T01:01:04;99617.00;;;27.50
65569;BMP180;52211;50.154;8.682;2022-08-19T01:03:33;99614.00;;;27.50
65569;BMP180;52211;50.154;8.682;2022-08-19T01:06:21;99611.00;;;27.50
65569;BMP180;52211;50.154;8.682;2022-08-19T01:08:48;99611.00;;;27.50
65569;BMP180;52211;50.154;8.682;2022-08-19T01:11:16;99608.00;;;27.50
65569;BMP180;52211;50.154;8.682;2022-08-19T01:13:45;99599.00;;;27.50
65569;BMP180;52211;50.154;8.682;2022-08-19T01:16:19;99608.00;;;27.40
65569;BMP180;52211;50.154;8.682;2022-08-19T01:18:47;99609.00;;;27.40
65569;BMP180;52211;50.154;8.682;2022-08-19T01:21:28;99606.00;;;27.40
65569;BMP180;52211;50.154;8.682;2022-08-19T01:23:57;99609.00;;;27.40
65569;BMP180;52211;50.154;8.682;2022-08-19T01:26:28;99603.00;;;27.40
65569;BMP180;52211;50.154;8.682;2022-08-19T01:28:59;99610.00;;;27.40
65569;BMP180;52211;50.154;8.682;2022-08-19T01:31:30;99616.00;;;27.40
65569;BMP180;52211;50.154;8.682;2022-08-19T01:33:59;99604.00;;;27.40
65569;BMP180;52211;50.154;8.682;2022-08-19T01:36:39;99594.00;;;27.30
65569;BMP180;52211;50.154;8.682;2022-08-19T01:39:14;99596.00;;;27.30
65569;BMP180;52211;50.154;8.682;2022-08-19T01:41:41;99597.00;;;27.30
65569;BMP180;52211;50.154;8.682;2022-08-19T01:44:12;99593.00;;;27.30
65569;BMP180;52211;50.154;8.682;2022-08-19T01:46:47;99601.00;;;27.30
65569;BMP180;52211;50.154;8.682;2022-08-19T01:49:24;99608.00;;;27.30
65569;BMP180;52211;50.154;8.682;2022-08-19T01:51:53;99614.00;;;27.30
65569;BMP180;52211;50.154;8.682;2022-08-19T01:54:26;99608.00;;;27.30
65569;BMP180;52211;50.154;8.682;2022-08-19T01:57:04;99600.00;;;27.30
65569;BMP180;52211;50.154;8.682;2022-08-19T01:59:34;99604.00;;;27.30
65569;BMP180;52211;50.154;8.682;2022-08-19T02:02:06;99608.00;;;27.30
65569;BMP180;52211;50.154;8.682;2022-08-19T02:04:36;99605.00;;;27.30
65569;BMP180;52211;50.154;8.682;2022-08-19T02:07:07;99607.00;;;27.30
65569;BMP180;52211;50.154;8.682;2022-08-19T02:09:35;99606.00;;;27.30
65569;BMP180;52211;50.154;8.682;2022-08-19T02:12:06;99609.00;;;27.30
65569;BMP180;52211;50.154;8.682;2022-08-19T02:14:38;99609.00;;;27.30
65569;BMP180;52211;50.154;8.682;2022-08-19T02:17:05;99603.00;;;27.30
65569;BMP180;52211;50.154;8.682;2022-08-19T02:19:35;99602.00;;;27.30
65569;BMP180;52211;50.154;8.682;2022-08-19T02:22:09;99611.00;;;27.30
65569;BMP180;52211;50.154;8.682;2022-08-19T02:24:35;99611.00;;;27.20
65569;BMP180;52211;50.154;8.682;2022-08-19T02:27:05;99628.00;;;27.20
65569;BMP180;52211;50.154;8.682;2022-08-19T02:29:34;99634.00;;;27.20
65569;BMP180;52211;50.154;8.682;2022-08-19T02:32:04;99626.00;;;27.20
65569;BMP180;52211;50.154;8.682;2022-08-19T02:34:31;99626.00;;;27.20
65569;BMP180;52211;50.154;8.682;2022-08-19T02:37:00;99634.00;;;27.20
65569;BMP180;52211;50.154;8.682;2022-08-19T02:39:29;99635.00;;;27.20
65569;BMP180;52211;50.154;8.682;2022-08-19T02:41:58;99627.00;;;27.20
65569;BMP180;52211;50.154;8.682;2022-08-19T02:44:29;99633.00;;;27.20
65569;BMP180;52211;50.154;8.682;2022-08-19T02:46:57;99624.00;;;27.20
65569;BMP180;52211;50.154;8.682;2022-08-19T02:49:26;99629.00;;;27.20
65569;BMP180;52211;50.154;8.682;2022-08-19T02:51:56;99632.00;;;27.20
65569;BMP180;52211;50.154;8.682;2022-08-19T02:54:23;99635.00;;;27.20
65569;BMP180;52211;50.154;8.682;2022-08-19T02:56:52;99630.00;;;27.20
65569;BMP180;52211;50.154;8.682;2022-08-19T02:59:21;99633.00;;;27.20
65569;BMP180;52211;50.154;8.682;2022-08-19T03:01:54;99631.00;;;27.20
65569;BMP180;52211;50.154;8.682;2022-08-19T03:04:26;99639.00;;;27.10
65569;BMP180;52211;50.154;8.682;2022-08-19T03:06:53;99634.00;;;27.10
65569;BMP180;52211;50.154;8.682;2022-08-19T03:09:23;99628.00;;;27.10
65569;BMP180;52211;50.154;8.682;2022-08-19T03:11:54;99628.00;;;27.10
65569;BMP180;52211;50.154;8.682;2022-08-19T03:14:21;99628.00;;;27.10
65569;BMP180;52211;50.154;8.682;2022-08-19T03:16:52;99630.00;;;27.00
65569;BMP180;52211;50.154;8.682;2022-08-19T03:19:23;99629.00;;;27.00
65569;BMP180;52211;50.154;8.682;2022-08-19T03:21:51;99631.00;;;27.00
65569;BMP180;52211;50.154;8.682;2022-08-19T03:24:21;99634.00;;;27.00
65569;BMP180;52211;50.154;8.682;2022-08-19T03:26:54;99634.00;;;27.00
65569;BMP180;52211;50.154;8.682;2022-08-19T03:29:28;99642.00;;;26.90
65569;BMP180;52211;50.154;8.682;2022-08-19T03:32:04;99644.00;;;26.90
65569;BMP180;52211;50.154;8.682;2022-08-19T03:34:36;99647.00;;;26.90
65569;BMP180;52211;50.154;8.682;2022-08-19T03:37:08;99649.00;;;26.90
65569;BMP180;52211;50.154;8.682;2022-08-19T03:39:40;99658.00;;;26.90
65569;BMP180;52211;50.154;8.682;2022-08-19T03:42:09;99647.00;;;26.90
65569;BMP180;52211;50.154;8.682;2022-08-19T03:44:58;99646.00;;;26.80
65569;BMP180;52211;50.154;8.682;2022-08-19T03:47:25;99647.00;;;26.80
65569;BMP180;52211;50.154;8.682;2022-08-19T03:49:54;99649.00;;;26.80
65569;BMP180;52211;50.154;8.682;2022-08-19T03:52:23;99643.00;;;26.80
65569;BMP180;52211;50.154;8.682;2022-08-19T03:54:52;99647.00;;;26.70
65569;BMP180;52211;50.154;8.682;2022-08-19T03:57:22;99651.00;;;26.70
65569;BMP180;52211;50.154;8.682;2022-08-19T04:00:00;99648.00;;;26.70
65569;BMP180;52211;50.154;8.682;2022-08-19T04:02:42;99655.00;;;26.70
65569;BMP180;52211;50.154;8.682;2022-08-19T04:05:30;99644.00;;;26.70
65569;BMP180;52211;50.154;8.682;2022-08-19T04:07:57;99649.00;;;26.70
65569;BMP180;52211;50.154;8.682;2022-08-19T04:10:30;99654.00;;;26.70
65569;BMP180;52211;50.154;8.682;2022-08-19T04:12:56;99654.00;;;26.70
65569;BMP180;52211;50.154;8.682;2022-08-19T04:15:26;99652.00;;;26.60
65569;BMP180;52211;50.154;8.682;2022-08-19T04:17:55;99653.00;;;26.60
65569;BMP180;52211;50.154;8.682;2022-08-19T04:20:24;99657.00;;;26.60
65569;BMP180;52211;50.154;8.682;2022-08-19T04:22:51;99657.00;;;26.60
65569;BMP180;52211;50.154;8.682;2022-08-19T04:25:18;99655.00;;;26.60
65569;BMP180;52211;50.154;8.682;2022-08-19T04:27:45;99654.00;;;26.50
65569;BMP180;52211;50.154;8.682;2022-08-19T04:30:13;99651.00;;;26.50
65569;BMP180;52211;50.154;8.682;2022-08-19T04:32:41;99654.00;;;26.50
65569;BMP180;52211;50.154;8.682;2022-08-19T04:35:12;99652.00;;;26.50
65569;BMP180;52211;50.154;8.682;2022-08-19T04:37:48;99653.00;;;26.40
65569;BMP180;52211;50.154;8.682;2022-08-19T04:40:17;99654.00;;;26.40
65569;BMP180;52211;50.154;8.682;2022-08-19T04:43:03;99656.00;;;26.40
65569;BMP180;52211;50.154;8.682;2022-08-19T04:45:32;99659.00;;;26.40
65569;BMP180;52211;50.154;8.682;2022-08-19T04:48:14;99668.00;;;26.40
65569;BMP180;52211;50.154;8.682;2022-08-19T04:50:56;99677.00;;;26.30
65569;BMP180;52211;50.154;8.682;2022-08-19T04:53:36;99670.00;;;26.30
65569;BMP180;52211;50.154;8.682;2022-08-19T04:56:13;99665.00;;;26.30
65569;BMP180;52211;50.154;8.682;2022-08-19T04:58:45;99669.00;;;26.30
65569;BMP180;52211;50.154;8.682;2022-08-19T05:01:17;99671.00;;;26.30
65569;BMP180;52211;50.154;8.682;2022-08-19T05:03:44;99673.00;;;26.30
65569;BMP180;52211;50.154;8.682;2022-08-19T05:06:14;99669.00;;;26.20
65569;BMP180;52211;50.154;8.682;2022-08-19T05:08:44;99676.00;;;26.20
65569;BMP180;52211;50.154;8.682;2022-08-19T05:11:21;99675.00;;;26.20
65569;BMP180;52211;50.154;8.682;2022-08-19T05:13:55;99669.00;;;26.20
65569;BMP180;52211;50.154;8.682;2022-08-19T05:16:25;99664.00;;;26.30
65569;BMP180;52211;50.154;8.682;2022-08-19T05:18:55;99665.00;;;26.30
65569;BMP180;52211;50.154;8.682;2022-08-19T05:21:42;99665.00;;;26.30
65569;BMP180;52211;50.154;8.682;2022-08-19T05:24:28;99673.00;;;26.30
65569;BMP180;52211;50.154;8.682;2022-08-19T05:27:01;99677.00;;;26.30
65569;BMP180;52211;50.154;8.682;2022-08-19T05:29:33;99671.00;;;26.40
65569;BMP180;52211;50.154;8.682;2022-08-19T05:32:05;99674.00;;;26.40
65569;BMP180;52211;50.154;8.682;2022-08-19T05:34:35;99669.00;;;26.40
65569;BMP180;52211;50.154;8.682;2022-08-19T05:37:03;99673.00;;;26.40
65569;BMP180;52211;50.154;8.682;2022-08-19T05:39:35;99676.00;;;26.40
65569;BMP180;52211;50.154;8.682;2022-08-19T05:42:09;99681.00;;;26.50
65569;BMP180;52211;50.154;8.682;2022-08-19T05:44:40;99688.00;;;26.50
65569;BMP180;52211;50.154;8.682;2022-08-19T05:47:17;99690.00;;;26.50
65569;BMP180;52211;50.154;8.682;2022-08-19T05:49:47;99690.00;;;26.60
65569;BMP180;52211;50.154;8.682;2022-08-19T05:52:17;99689.00;;;26.60
65569;BMP180;52211;50.154;8.682;2022-08-19T05:54:48;99678.00;;;26.60
65569;BMP180;52211;50.154;8.682;2022-08-19T05:57:22;99683.00;;;26.60
65569;BMP180;52211;50.154;8.682;2022-08-19T05:59:52;99676.00;;;26.70
65569;BMP180;52211;50.154;8.682;2022-08-19T06:02:28;99694.00;;;26.70
65569;BMP180;52211;50.154;8.682;2022-08-19T06:04:57;99694.00;;;26.80
65569;BMP180;52211;50.154;8.682;2022-08-19T06:07:24;99696.00;;;26.80
65569;BMP180;52211;50.154;8.682;2022-08-19T06:09:54;99704.00;;;26.80
65569;BMP180;52211;50.154;8.682;2022-08-19T06:12:29;99695.00;;;26.80
65569;BMP180;52211;50.154;8.682;2022-08-19T06:15:13;99699.00;;;26.80
65569;BMP180;52211;50.154;8.682;2022-08-19T06:17:40;99697.00;;;26.90
65569;BMP180;52211;50.154;8.682;2022-08-19T06:20:14;99704.00;;;26.90
65569;BMP180;52211;50.154;8.682;2022-08-19T06:22:46;99719.00;;;26.90
65569;BMP180;52211;50.154;8.682;2022-08-19T06:25:16;99718.00;;;26.90
65569;BMP180;52211;50.154;8.682;2022-08-19T06:27:46;99719.00;;;27.00
65569;BMP180;52211;50.154;8.682;2022-08-19T06:30:33;99728.00;;;27.00
65569;BMP180;52211;50.154;8.682;2022-08-19T06:33:00;99727.00;;;27.10
65569;BMP180;52211;50.154;8.682;2022-08-19T06:35:29;99726.00;;;27.10
65569;BMP180;52211;50.154;8.682;2022-08-19T06:37:56;99725.00;;;27.10
65569;BMP180;52211;50.154;8.682;2022-08-19T06:40:31;99737.00;;;27.10
65569;BMP180;52211;50.154;8.682;2022-08-19T06:43:00;99742.00;;;27.10
65569;BMP180;52211;50.154;8.682;2022-08-19T06:45:33;99751.00;;;27.20
65569;BMP180;52211;50.154;8.682;2022-08-19T06:48:07;99761.00;;;27.20
65569;BMP180;52211;50.154;8.682;2022-08-19T06:50:38;99764.00;;;27.30
65569;BMP180;52211;50.154;8.682;2022-08-19T06:53:09;99755.00;;;27.30
65569;BMP180;52211;50.154;8.682;2022-08-19T06:55:36;99750.00;;;27.30
65569;BMP180;52211;50.154;8.682;2022-08-19T06:58:04;99754.00;;;27.30
65569;BMP180;52211;50.154;8.682;2022-08-19T07:00:33;99759.00;;;27.40
65569;BMP180;52211;50.154;8.682;2022-08-19T07:03:03;99769.00;;;27.40
65569;BMP180;52211;50.154;8.682;2022-08-19T07:05:40;99768.00;;;27.40
65569;BMP180;52211;50.154;8.682;2022-08-19T07:08:11;99763.00;;;27.40
65569;BMP180;52211;50.154;8.682;2022-08-19T07:10:45;99767.00;;;27.50
65569;BMP180;52211;50.154;8.682;2022-08-19T07:13:15;99762.00;;;27.50
65569;BMP180;52211;50.154;8.682;2022-08-19T07:15:44;99765.00;;;27.50
65569;BMP180;52211;50.154;8.682;2022-08-19T07:18:13;99769.00;;;27.60
65569;BMP180;52211;50.154;8.682;2022-08-19T07:20:47;99779.00;;;27.60
65569;BMP180;52211;50.154;8.682;2022-08-19T07:23:16;99775.00;;;27.60
65569;BMP180;52211;50.154;8.682;2022-08-19T07:25:43;99772.00;;;27.60
65569;BMP180;52211;50.154;8.682;2022-08-19T07:28:18;99774.00;;;27.70
65569;BMP180;52211;50.154;8.682;2022-08-19T07:30:51;99769.00;;;27.70
65569;BMP180;52211;50.154;8.682;2022-08-19T07:33:21;99767.00;;;27.70
65569;BMP180;52211;50.154;8.682;2022-08-19T07:35:48;99766.00;;;27.70
65569;BMP180;52211;50.154;8.682;2022-08-19T07:38:17;99767.00;;;27.80
65569;BMP180;52211;50.154;8.682;2022-08-19T07:40:44;99762.00;;;27.90
65569;BMP180;52211;50.154;8.682;2022-08-19T07:43:13;99767.00;;;27.90
65569;BMP180;52211;50.154;8.682;2022-08-19T07:45:44;99769.00;;;27.90
65569;BMP180;52211;50.154;8.682;2022-08-19T07:48:11;99777.00;;;28.00
65569;BMP180;52211;50.154;8.682;2022-08-19T07:50:38;99773.00;;;28.10
65569;BMP180;52211;50.154;8.682;2022-08-19T07:53:08;99775.00;;;28.10
65569;BMP180;52211;50.154;8.682;2022-08-19T07:55:37;99774.00;;;28.20
65569;BMP180;52211;50.154;8.682;2022-08-19T07:58:15;99770.00;;;28.20
65569;BMP180;52211;50.154;8.682;2022-08-19T08:00:47;99771.00;;;28.30
65569;BMP180;52211;50.154;8.682;2022-08-19T08:03:18;99776.00;;;28.30
65569;BMP180;52211;50.154;8.682;2022-08-19T08:05:45;99775.00;;;28.40
65569;BMP180;52211;50.154;8.682;2022-08-19T08:08:33;99781.00;;;28.50
65569;BMP180;52211;50.154;8.682;2022-08-19T08:11:22;99778.00;;;28.50
65569;BMP180;52211;50.154;8.682;2022-08-19T08:13:49;99773.00;;;28.50
65569;BMP180;52211;50.154;8.682;2022-08-19T08:16:34;99767.00;;;28.60
65569;BMP180;52211;50.154;8.682;2022-08-19T08:19:07;99774.00;;;28.70
65569;BMP180;52211;50.154;8.682;2022-08-19T08:21:54;99777.00;;;28.80
65569;BMP180;52211;50.154;8.682;2022-08-19T08:24:24;99775.00;;;28.90
65569;BMP180;52211;50.154;8.682;2022-08-19T08:27:00;99778.00;;;29.00
65569;BMP180;52211;50.154;8.682;2022-08-19T08:29:39;99785.00;;;29.10
65569;BMP180;52211;50.154;8.682;2022-08-19T08:32:08;99784.00;;;29.20
65569;BMP180;52211;50.154;8.682;2022-08-19T08:34:42;99779.00;;;29.30
65569;BMP180;52211;50.154;8.682;2022-08-19T08:37:18;99790.00;;;29.40
65569;BMP180;52211;50.154;8.682;2022-08-19T08:39:44;99790.00;;;29.50
65569;BMP180;52211;50.154;8.682;2022-08-19T08:42:34;99783.00;;;29.60
65569;BMP180;52211;50.154;8.682;2022-08-19T08:45:14;99788.00;;;29.60
65569;BMP180;52211;50.154;8.682;2022-08-19T08:47:51;99778.00;;;29.70
65569;BMP180;52211;50.154;8.682;2022-08-19T08:50:27;99788.00;;;29.80
65569;BMP180;52211;50.154;8.682;2022-08-19T08:52:59;99793.00;;;29.90
65569;BMP180;52211;50.154;8.682;2022-08-19T08:55:31;99795.00;;;30.00
65569;BMP180;52211;50.154;8.682;2022-08-19T08:58:17;99795.00;;;30.10
65569;BMP180;52211;50.154;8.682;2022-08-19T09:00:50;99783.00;;;30.20
65569;BMP180;52211;50.154;8.682;2022-08-19T09:03:25;99788.00;;;30.30
65569;BMP180;52211;50.154;8.682;2022-08-19T09:06:07;99783.00;;;30.30
65569;BMP180;52211;50.154;8.682;2022-08-19T09:17:24;99769.00;;;30.70
65569;BMP180;52211;50.154;8.682;2022-08-19T09:22:28;99771.00;;;30.80
65569;BMP180;52211;50.154;8.682;2022-08-19T09:24:55;99763.00;;;30.90
65569;BMP180;52211;50.154;8.682;2022-08-19T09:27:28;99761.00;;;30.90
65569;BMP180;52211;50.154;8.682;2022-08-19T09:30:19;99767.00;;;30.70
65569;BMP180;52211;50.154;8.682;2022-08-19T09:32:55;99768.00;;;30.70
65569;BMP180;52211;50.154;8.682;2022-08-19T09:35:29;99773.00;;;30.70
65569;BMP180;52211;50.154;8.682;2022-08-19T09:37:57;99778.00;;;30.70
65569;BMP180;52211;50.154;8.682;2022-08-19T09:40:31;99772.00;;;30.80
65569;BMP180;52211;50.154;8.682;2022-08-19T09:43:04;99775.00;;;30.80
65569;BMP180;52211;50.154;8.682;2022-08-19T09:45:38;99780.00;;;30.90
65569;BMP180;52211;50.154;8.682;2022-08-19T09:48:05;99774.00;;;31.00
65569;BMP180;52211;50.154;8.682;2022-08-19T09:50:37;99773.00;;;31.10
65569;BMP180;52211;50.154;8.682;2022-08-19T09:53:18;99765.00;;;31.10
65569;BMP180;52211;50.154;8.682;2022-08-19T09:55:45;99767.00;;;31.20
65569;BMP180;52211;50.154;8.682;2022-08-19T09:58:20;99762.00;;;31.20
65569;BMP180;52211;50.154;8.682;2022-08-19T10:00:52;99767.00;;;31.30
65569;BMP180;52211;50.154;8.682;2022-08-19T10:03:20;99761.00;;;31.30
65569;BMP180;52211;50.154;8.682;2022-08-19T10:06:05;99758.00;;;31.40
65569;BMP180;52211;50.154;8.682;2022-08-19T10:08:42;99763.00;;;31.40
65569;BMP180;52211;50.154;8.682;2022-08-19T10:11:18;99764.00;;;31.50
65569;BMP180;52211;50.154;8.682;2022-08-19T10:14:06;99767.00;;;31.50
65569;BMP180;52211;50.154;8.682;2022-08-19T10:16:36;99762.00;;;31.50
65569;BMP180;52211;50.154;8.682;2022-08-19T10:19:09;99761.00;;;31.50
65569;BMP180;52211;50.154;8.682;2022-08-19T10:21:36;99769.00;;;31.50
65569;BMP180;52211;50.154;8.682;2022-08-19T10:24:08;99760.00;;;31.60
65569;BMP180;52211;50.154;8.682;2022-08-19T10:26:39;99762.00;;;31.70
65569;BMP180;52211;50.154;8.682;2022-08-19T10:29:11;99753.00;;;31.80
65569;BMP180;52211;50.154;8.682;2022-08-19T10:31:40;99756.00;;;31.90
65569;BMP180;52211;50.154;8.682;2022-08-19T10:34:29;99751.00;;;31.90
65569;BMP180;52211;50.154;8.682;2022-08-19T10:36:57;99761.00;;;31.90
65569;BMP180;52211;50.154;8.682;2022-08-19T10:39:35;99752.00;;;31.90
65569;BMP180;52211;50.154;8.682;2022-08-19T10:42:10;99758.00;;;32.00
65569;BMP180;52211;50.154;8.682;2022-08-19T10:44:41;99754.00;;;32.10
65569;BMP180;52211;50.154;8.682;2022-08-19T10:47:08;99752.00;;;32.30
65569;BMP180;52211;50.154;8.682;2022-08-19T10:49:54;99761.00;;;32.40
65569;BMP180;52211;50.154;8.682;2022-08-19T10:52:43;99746.00;;;32.50
65569;BMP180;52211;50.154;8.682;2022-08-19T10:55:22;99746.00;;;32.60
65569;BMP180;52211;50.154;8.682;2022-08-19T10:58:18;99744.00;;;32.80
65569;BMP180;52211;50.154;8.682;2022-08-19T11:00:57;99745.00;;;33.00
65569;BMP180;52211;50.154;8.682;2022-08-19T11:03:27;99748.00;;;33.10
65569;BMP180;52211;50.154;8.682;2022-08-19T11:06:07;99745.00;;;33.20
65569;BMP180;52211;50.154;8.682;2022-08-19T11:08:36;99741.00;;;33.30
65569;BMP180;52211;50.154;8.682;2022-08-19T11:11:08;99734.00;;;33.30
65569;BMP180;52211;50.154;8.682;2022-08-19T11:13:40;99732.00;;;33.30
65569;BMP180;52211;50.154;8.682;2022-08-19T11:16:13;99722.00;;;33.30
65569;BMP180;52211;50.154;8.682;2022-08-19T11:18:45;99721.00;;;33.30
65569;BMP180;52211;50.154;8.682;2022-08-19T11:21:20;99717.00;;;33.30
65569;BMP180;52211;50.154;8.682;2022-08-19T11:23:52;99712.00;;;33.50
65569;BMP180;52211;50.154;8.682;2022-08-19T11:26:22;99707.00;;;33.70
65569;BMP180;52211;50.154;8.682;2022-08-19T11:28:50;99703.00;;;33.90
65569;BMP180;52211;50.154;8.682;2022-08-19T11:31:26;99694.00;;;34.10
65569;BMP180;52211;50.154;8.682;2022-08-19T11:34:03;99697.00;;;34.20
65569;BMP180;52211;50.154;8.682;2022-08-19T11:36:31;99694.00;;;34.30
65569;BMP180;52211;50.154;8.682;2022-08-19T11:39:02;99693.00;;;34.40
65569;BMP180;52211;50.154;8.682;2022-08-19T11:41:29;99685.00;;;34.50
65569;BMP180;52211;50.154;8.682;2022-08-19T11:43:59;99679.00;;;34.60
65569;BMP180;52211;50.154;8.682;2022-08-19T11:46:30;99683.00;;;34.80
65569;BMP180;52211;50.154;8.682;2022-08-19T11:49:00;99683.00;;;34.90
65569;BMP180;52211;50.154;8.682;2022-08-19T11:51:30;99684.00;;;35.10
65569;BMP180;52211;50.154;8.682;2022-08-19T11:53:59;99698.00;;;35.20
65569;BMP180;52211;50.154;8.682;2022-08-19T11:56:28;99698.00;;;35.20
65569;BMP180;52211;50.154;8.682;2022-08-19T11:58:56;99691.00;;;35.30
65569;BMP180;52211;50.154;8.682;2022-08-19T12:01:25;99698.00;;;35.40
65569;BMP180;52211;50.154;8.682;2022-08-19T12:03:55;99690.00;;;35.40
65569;BMP180;52211;50.154;8.682;2022-08-19T12:06:29;99691.00;;;35.40
65569;BMP180;52211;50.154;8.682;2022-08-19T12:09:04;99695.00;;;35.60
65569;BMP180;52211;50.154;8.682;2022-08-19T12:11:32;99694.00;;;35.70
65569;BMP180;52211;50.154;8.682;2022-08-19T12:14:00;99680.00;;;35.90
65569;BMP180;52211;50.154;8.682;2022-08-19T12:16:31;99685.00;;;36.00
65569;BMP180;52211;50.154;8.682;2022-08-19T12:19:00;99690.00;;;36.00
65569;BMP180;52211;50.154;8.682;2022-08-19T12:21:36;99685.00;;;36.00
65569;BMP180;52211;50.154;8.682;2022-08-19T12:24:07;99685.00;;;36.00
65569;BMP180;52211;50.154;8.682;2022-08-19T12:26:34;99678.00;;;36.00
65569;BMP180;52211;50.154;8.682;2022-08-19T12:29:21;99684.00;;;36.00
65569;BMP180;52211;50.154;8.682;2022-08-19T12:31:58;99681.00;;;36.20
65569;BMP180;52211;50.154;8.682;2022-08-19T12:34:32;99677.00;;;36.30
65569;BMP180;52211;50.154;8.682;2022-08-19T12:37:05;99679.00;;;36.40
65569;BMP180;52211;50.154;8.682;2022-08-19T12:39:40;99679.00;;;36.50
65569;BMP180;52211;50.154;8.682;2022-08-19T12:42:10;99668.00;;;36.50
65569;BMP180;52211;50.154;8.682;2022-08-19T12:44:40;99665.00;;;36.50
65569;BMP180;52211;50.154;8.682;2022-08-19T12:47:12;99660.00;;;36.70
65569;BMP180;52211;50.154;8.682;2022-08-19T12:49:41;99656.00;;;36.90
65569;BMP180;52211;50.154;8.682;2022-08-19T12:52:25;99657.00;;;37.10
65569;BMP180;52211;50.154;8.682;2022-08-19T12:54:58;99670.00;;;37.30
65569;BMP180;52211;50.154;8.682;2022-08-19T12:57:27;99665.00;;;37.40
65569;BMP180;52211;50.154;8.682;2022-08-19T13:00:13;99664.00;;;37.40
65569;BMP180;52211;50.154;8.682;2022-08-19T13:02:45;99662.00;;;37.30
65569;BMP180;52211;50.154;8.682;2022-08-19T13:05:21;99668.00;;;37.10
65569;BMP180;52211;50.154;8.682;2022-08-19T13:07:52;99667.00;;;36.90
65569;BMP180;52211;50.154;8.682;2022-08-19T13:10:33;99668.00;;;36.60
65569;BMP180;52211;50.154;8.682;2022-08-19T13:13:08;99661.00;;;36.30
65569;BMP180;52211;50.154;8.682;2022-08-19T13:15:41;99669.00;;;36.10
65569;BMP180;52211;50.154;8.682;2022-08-19T13:18:14;99670.00;;;36.00
65569;BMP180;52211;50.154;8.682;2022-08-19T13:20:46;99664.00;;;36.00
65569;BMP180;52211;50.154;8.682;2022-08-19T13:23:18;99668.00;;;36.10
65569;BMP180;52211;50.154;8.682;2022-08-19T13:25:56;99666.00;;;36.20
65569;BMP180;52211;50.154;8.682;2022-08-19T13:28:24;99678.00;;;36.40
65569;BMP180;52211;50.154;8.682;2022-08-19T13:30:54;99672.00;;;36.50
65569;BMP180;52211;50.154;8.682;2022-08-19T13:33:40;99680.00;;;36.50
65569;BMP180;52211;50.154;8.682;2022-08-19T13:36:07;99687.00;;;36.50
65569;BMP180;52211;50.154;8.682;2022-08-19T13:38:38;99682.00;;;36.50
65569;BMP180;52211;50.154;8.682;2022-08-19T13:41:07;99696.00;;;36.50
65569;BMP180;52211;50.154;8.682;2022-08-19T13:43:40;99684.00;;;36.40
65569;BMP180;52211;50.154;8.682;2022-08-19T13:46:10;99691.00;;;36.30
65569;BMP180;52211;50.154;8.682;2022-08-19T13:48:41;99694.00;;;36.30
65569;BMP180;52211;50.154;8.682;2022-08-19T13:51:13;99696.00;;;36.20
65569;BMP180;52211;50.154;8.682;2022-08-19T13:53:45;99694.00;;;36.10
65569;BMP180;52211;50.154;8.682;2022-08-19T13:56:18;99696.00;;;36.00
65569;BMP180;52211;50.154;8.682;2022-08-19T13:58:52;99691.00;;;35.90
65569;BMP180;52211;50.154;8.682;2022-08-19T14:01:24;99686.00;;;35.80
65569;BMP180;52211;50.154;8.682;2022-08-19T14:03:51;99687.00;;;35.70
65569;BMP180;52211;50.154;8.682;2022-08-19T14:06:22;99686.00;;;35.60
65569;BMP180;52211;50.154;8.682;2022-08-19T14:08:52;99694.00;;;35.60
65569;BMP180;52211;50.154;8.682;2022-08-19T14:11:19;99694.00;;;35.50
65569;BMP180;52211;50.154;8.682;2022-08-19T14:13:46;99697.00;;;35.40
65569;BMP180;52211;50.154;8.682;2022-08-19T14:16:14;99711.00;;;35.30
65569;BMP180;52211;50.154;8.682;2022-08-19T14:18:46;99711.00;;;35.30
65569;BMP180;52211;50.154;8.682;2022-08-19T14:21:22;99710.00;;;35.30
65569;BMP180;52211;50.154;8.682;2022-08-19T14:23:55;99705.00;;;35.40
65569;BMP180;52211;50.154;8.682;2022-08-19T14:26:22;99699.00;;;35.40
65569;BMP180;52211;50.154;8.682;2022-08-19T14:28:55;99700.00;;;35.40
65569;BMP180;52211;50.154;8.682;2022-08-19T14:31:23;99702.00;;;35.40
65569;BMP180;52211;50.154;8.682;2022-08-19T14:33:56;99694.00;;;35.40
65569;BMP180;52211;50.154;8.682;2022-08-19T14:36:23;99689.00;;;35.30
65569;BMP180;52211;50.154;8.682;2022-08-19T14:38:50;99688.00;;;35.30
65569;BMP180;52211;50.154;8.682;2022-08-19T14:41:22;99676.00;;;35.20
65569;BMP180;52211;50.154;8.682;2022-08-19T14:43:52;99673.00;;;35.20
65569;BMP180;52211;50.154;8.682;2022-08-19T14:46:26;99670.00;;;35.10
65569;BMP180;52211;50.154;8.682;2022-08-19T14:48:57;99657.00;;;35.10